sensor_id;sensor_type;location;lat;lon;timestamp;temperature;humidity
16229;DHT22;8222;51.462;12.630;2023-08-24T00:01:12;19.50;99.90
16229;DHT22;8222;51.462;12.630;2023-08-24T00:03:45;19.40;99.90
16229;DHT22;8222;51.462;12.630;2023-08-24T00:06:14;19.40;99.90
16229;DHT22;8222;51.462;12.630;2023-08-24T00:08:42;19.40;99.90
16229;DHT22;8222;51.462;12.630;2023-08-24T00:11:10;19.40;99.90
16229;DHT22;8222;51.462;12.630;2023-08-24T00:13:43;19.50;99.90
16229;DHT22;8222;51.462;12.630;2023-08-24T00:16:21;19.60;99.90
16229;DHT22;8222;51.462;12.630;2023-08-24T00:18:47;19.50;99.90
16229;DHT22;8222;51.462;12.630;2023-08-24T00:21:16;19.40;99.90
16229;DHT22;8222;51.462;12.630;2023-08-24T00:23:48;19.30;99.90
16229;DHT22;8222;51.462;12.630;2023-08-24T00:26:14;19.40;99.90
16229;DHT22;8222;51.462;12.630;2023-08-24T00:28:42;19.30;99.90
16229;DHT22;8222;51.462;12.630;2023-08-24T00:31:08;19.30;99.90
16229;DHT22;8222;51.462;12.630;2023-08-24T00:33:34;19.30;99.90
16229;DHT22;8222;51.462;12.630;2023-08-24T00:36:03;19.20;99.90
16229;DHT22;8222;51.462;12.630;2023-08-24T00:38:29;19.20;99.90
16229;DHT22;8222;51.462;12.630;2023-08-24T00:40:56;19.20;99.90
16229;DHT22;8222;51.462;12.630;2023-08-24T00:43:21;19.30;99.90
16229;DHT22;8222;51.462;12.630;2023-08-24T00:45:51;19.20;99.90
16229;DHT22;8222;51.462;12.630;2023-08-24T00:48:18;19.20;99.90
16229;DHT22;8222;51.462;12.630;2023-08-24T00:50:43;19.10;99.90
16229;DHT22;8222;51.462;12.630;2023-08-24T00:53:12;19.10;99.90
16229;DHT22;8222;51.462;12.630;2023-08-24T00:55:38;19.00;99.90
16229;DHT22;8222;51.462;12.630;2023-08-24T00:58:07;19.10;99.90
16229;DHT22;8222;51.462;12.630;2023-08-24T01:00:35;19.00;99.90
16229;DHT22;8222;51.462;12.630;2023-08-24T01:03:04;19.00;99.90
16229;DHT22;8222;51.462;12.630;2023-08-24T01:05:32;18.90;99.90
16229;DHT22;8222;51.462;12.630;2023-08-24T01:08:03;18.80;99.90
16229;DHT22;8222;51.462;12.630;2023-08-24T01:13:25;18.80;99.90
16229;DHT22;8222;51.462;12.630;2023-08-24T01:16:09;18.80;99.90
16229;DHT22;8222;51.462;12.630;2023-08-24T01:18:39;18.80;99.90
16229;DHT22;8222;51.462;12.630;2023-08-24T01:21:08;18.80;99.90
16229;DHT22;8222;51.462;12.630;2023-08-24T01:24:02;19.00;99.90
16229;DHT22;8222;51.462;12.630;2023-08-24T01:26:29;18.90;99.90
16229;DHT22;8222;51.462;12.630;2023-08-24T01:28:55;18.80;99.90
16229;DHT22;8222;51.462;12.630;2023-08-24T01:31:24;18.80;99.90
16229;DHT22;8222;51.462;12.630;2023-08-24T01:33:52;18.80;99.90
16229;DHT22;8222;51.462;12.630;2023-08-24T01:36:20;18.70;99.90
16229;DHT22;8222;51.462;12.630;2023-08-24T01:38:59;18.70;99.90
16229;DHT22;8222;51.462;12.630;2023-08-24T01:41:37;18.70;99.90
16229;DHT22;8222;51.462;12.630;2023-08-24T01:44:06;18.70;99.90
16229;DHT22;8222;51.462;12.630;2023-08-24T01:46:34;18.80;99.90
16229;DHT22;8222;51.462;12.630;2023-08-24T01:49:02;18.70;99.90
16229;DHT22;8222;51.462;12.630;2023-08-24T01:51:30;18.70;99.90
16229;DHT22;8222;51.462;12.630;2023-08-24T01:53:58;18.60;99.90
16229;DHT22;8222;51.462;12.630;2023-08-24T01:56:27;18.70;99.90
16229;DHT22;8222;51.462;12.630;2023-08-24T01:58:53;18.70;99.90
16229;DHT22;8222;51.462;12.630;2023-08-24T02:01:18;18.60;99.90
16229;DHT22;8222;51.462;12.630;2023-08-24T02:03:46;18.60;99.90
16229;DHT22;8222;51.462;12.630;2023-08-24T02:06:14;18.60;99.90
16229;DHT22;8222;51.462;12.630;2023-08-24T02:08:39;18.60;99.90
16229;DHT22;8222;51.462;12.630;2023-08-24T02:11:09;18.50;99.90
16229;DHT22;8222;51.462;12.630;2023-08-24T02:13:35;18.50;99.90
16229;DHT22;8222;51.462;12.630;2023-08-24T02:16:02;18.40;99.90
16229;DHT22;8222;51.462;12.630;2023-08-24T02:18:28;18.40;99.90
16229;DHT22;8222;51.462;12.630;2023-08-24T02:20:53;18.40;99.90
16229;DHT22;8222;51.462;12.630;2023-08-24T02:23:19;18.30;99.90
16229;DHT22;8222;51.462;12.630;2023-08-24T02:25:45;18.30;99.90
16229;DHT22;8222;51.462;12.630;2023-08-24T02:28:10;18.40;99.90
16229;DHT22;8222;51.462;12.630;2023-08-24T02:30:39;18.30;99.90
16229;DHT22;8222;51.462;12.630;2023-08-24T02:33:09;18.40;99.90
16229;DHT22;8222;51.462;12.630;2023-08-24T02:35:35;18.40;99.90
16229;DHT22;8222;51.462;12.630;2023-08-24T02:38:00;18.30;99.90
16229;DHT22;8222;51.462;12.630;2023-08-24T02:40:26;18.30;99.90
16229;DHT22;8222;51.462;12.630;2023-08-24T02:42:54;18.30;99.90
16229;DHT22;8222;51.462;12.630;2023-08-24T02:45:20;18.20;99.90
16229;DHT22;8222;51.462;12.630;2023-08-24T02:47:48;18.20;99.90
16229;DHT22;8222;51.462;12.630;2023-08-24T02:50:13;18.20;99.90
16229;DHT22;8222;51.462;12.630;2023-08-24T02:52:39;18.30;99.90
16229;DHT22;8222;51.462;12.630;2023-08-24T02:55:05;18.20;99.90
16229;DHT22;8222;51.462;12.630;2023-08-24T02:57:31;18.20;99.90
16229;DHT22;8222;51.462;12.630;2023-08-24T02:59:57;18.10;99.90
16229;DHT22;8222;51.462;12.630;2023-08-24T03:02:22;18.10;99.90
16229;DHT22;8222;51.462;12.630;2023-08-24T03:04:50;18.10;99.90
16229;DHT22;8222;51.462;12.630;2023-08-24T03:07:16;18.00;99.90
16229;DHT22;8222;51.462;12.630;2023-08-24T03:09:42;18.10;99.90
16229;DHT22;8222;51.462;12.630;2023-08-24T03:12:08;18.00;99.90
16229;DHT22;8222;51.462;12.630;2023-08-24T03:14:38;18.00;99.90
16229;DHT22;8222;51.462;12.630;2023-08-24T03:17:04;18.00;99.90
16229;DHT22;8222;51.462;12.630;2023-08-24T03:19:35;18.00;99.90
16229;DHT22;8222;51.462;12.630;2023-08-24T03:22:00;18.00;99.90
16229;DHT22;8222;51.462;12.630;2023-08-24T03:24:26;18.00;99.90
16229;DHT22;8222;51.462;12.630;2023-08-24T03:26:52;17.90;99.90
16229;DHT22;8222;51.462;12.630;2023-08-24T03:29:19;18.00;99.90
16229;DHT22;8222;51.462;12.630;2023-08-24T03:31:45;18.00;99.90
16229;DHT22;8222;51.462;12.630;2023-08-24T03:34:11;17.90;99.90
16229;DHT22;8222;51.462;12.630;2023-08-24T03:36:36;18.10;99.90
16229;DHT22;8222;51.462;12.630;2023-08-24T03:39:05;18.00;99.90
16229;DHT22;8222;51.462;12.630;2023-08-24T03:41:31;18.10;99.90
16229;DHT22;8222;51.462;12.630;2023-08-24T03:43:57;18.00;99.90
16229;DHT22;8222;51.462;12.630;2023-08-24T03:46:23;18.10;99.90
16229;DHT22;8222;51.462;12.630;2023-08-24T03:48:48;18.10;99.90
16229;DHT22;8222;51.462;12.630;2023-08-24T03:51:14;18.10;99.90
16229;DHT22;8222;51.462;12.630;2023-08-24T03:53:42;18.00;99.90
16229;DHT22;8222;51.462;12.630;2023-08-24T03:56:07;18.00;99.90
16229;DHT22;8222;51.462;12.630;2023-08-24T03:58:35;17.90;99.90
16229;DHT22;8222;51.462;12.630;2023-08-24T04:01:01;18.00;99.90
16229;DHT22;8222;51.462;12.630;2023-08-24T04:03:27;18.10;99.90
16229;DHT22;8222;51.462;12.630;2023-08-24T04:05:53;18.00;99.90
16229;DHT22;8222;51.462;12.630;2023-08-24T04:08:18;18.00;99.90
16229;DHT22;8222;51.462;12.630;2023-08-24T04:10:44;17.90;99.90
16229;DHT22;8222;51.462;12.630;2023-08-24T04:13:10;18.00;99.90
16229;DHT22;8222;51.462;12.630;2023-08-24T04:15:38;18.10;99.90
16229;DHT22;8222;51.462;12.630;2023-08-24T04:18:04;18.20;99.90
16229;DHT22;8222;51.462;12.630;2023-08-24T04:20:34;18.30;99.90
16229;DHT22;8222;51.462;12.630;2023-08-24T04:23:00;18.30;99.90
16229;DHT22;8222;51.462;12.630;2023-08-24T04:25:28;18.20;99.90
16229;DHT22;8222;51.462;12.630;2023-08-24T04:27:54;18.20;99.90
16229;DHT22;8222;51.462;12.630;2023-08-24T04:30:20;18.10;99.90
16229;DHT22;8222;51.462;12.630;2023-08-24T04:32:48;18.10;99.90
16229;DHT22;8222;51.462;12.630;2023-08-24T04:35:16;18.00;99.90
16229;DHT22;8222;51.462;12.630;2023-08-24T04:37:44;18.00;99.90
16229;DHT22;8222;51.462;12.630;2023-08-24T04:40:10;18.00;99.90
16229;DHT22;8222;51.462;12.630;2023-08-24T04:42:36;18.00;99.90
16229;DHT22;8222;51.462;12.630;2023-08-24T04:45:02;17.90;99.90
16229;DHT22;8222;51.462;12.630;2023-08-24T04:47:28;17.90;99.90
16229;DHT22;8222;51.462;12.630;2023-08-24T04:49:53;17.90;99.90
16229;DHT22;8222;51.462;12.630;2023-08-24T04:52:19;18.00;99.90
16229;DHT22;8222;51.462;12.630;2023-08-24T04:54:47;18.00;99.90
16229;DHT22;8222;51.462;12.630;2023-08-24T04:57:16;18.10;99.90
16229;DHT22;8222;51.462;12.630;2023-08-24T04:59:41;18.10;99.90
16229;DHT22;8222;51.462;12.630;2023-08-24T05:02:07;18.30;99.90
16229;DHT22;8222;51.462;12.630;2023-08-24T05:04:33;18.30;99.90
16229;DHT22;8222;51.462;12.630;2023-08-24T05:06:59;18.40;99.90
16229;DHT22;8222;51.462;12.630;2023-08-24T05:09:27;18.40;99.90
16229;DHT22;8222;51.462;12.630;2023-08-24T05:11:52;18.50;99.90
16229;DHT22;8222;51.462;12.630;2023-08-24T05:14:18;18.50;99.90
16229;DHT22;8222;51.462;12.630;2023-08-24T05:16:46;18.60;99.90
16229;DHT22;8222;51.462;12.630;2023-08-24T05:19:12;18.70;99.90
16229;DHT22;8222;51.462;12.630;2023-08-24T05:21:37;18.70;99.90
16229;DHT22;8222;51.462;12.630;2023-08-24T05:24:03;18.70;99.90
16229;DHT22;8222;51.462;12.630;2023-08-24T05:26:32;18.80;99.90
16229;DHT22;8222;51.462;12.630;2023-08-24T05:28:57;18.80;99.90
16229;DHT22;8222;51.462;12.630;2023-08-24T05:31:23;18.80;99.90
16229;DHT22;8222;51.462;12.630;2023-08-24T05:33:49;18.70;99.90
16229;DHT22;8222;51.462;12.630;2023-08-24T05:36:17;18.90;99.90
16229;DHT22;8222;51.462;12.630;2023-08-24T05:38:42;19.00;99.90
16229;DHT22;8222;51.462;12.630;2023-08-24T05:41:14;19.00;99.90
16229;DHT22;8222;51.462;12.630;2023-08-24T05:43:41;19.10;99.90
16229;DHT22;8222;51.462;12.630;2023-08-24T05:46:06;19.10;99.90
16229;DHT22;8222;51.462;12.630;2023-08-24T05:48:32;19.20;99.90
16229;DHT22;8222;51.462;12.630;2023-08-24T05:50:59;19.30;99.90
16229;DHT22;8222;51.462;12.630;2023-08-24T05:53:25;19.30;99.90
16229;DHT22;8222;51.462;12.630;2023-08-24T05:55:51;19.40;99.90
16229;DHT22;8222;51.462;12.630;2023-08-24T05:58:21;19.60;99.90
16229;DHT22;8222;51.462;12.630;2023-08-24T06:00:48;19.70;99.90
16229;DHT22;8222;51.462;12.630;2023-08-24T06:03:16;19.70;99.90
16229;DHT22;8222;51.462;12.630;2023-08-24T06:05:46;19.80;99.90
16229;DHT22;8222;51.462;12.630;2023-08-24T06:08:12;19.90;99.90
16229;DHT22;8222;51.462;12.630;2023-08-24T06:10:41;20.10;99.90
16229;DHT22;8222;51.462;12.630;2023-08-24T06:13:07;20.30;99.90
16229;DHT22;8222;51.462;12.630;2023-08-24T06:15:34;20.40;99.90
16229;DHT22;8222;51.462;12.630;2023-08-24T06:18:02;20.40;99.90
16229;DHT22;8222;51.462;12.630;2023-08-24T06:20:31;20.50;99.90
16229;DHT22;8222;51.462;12.630;2023-08-24T06:22:56;20.50;99.90
16229;DHT22;8222;51.462;12.630;2023-08-24T06:25:22;20.60;99.90
16229;DHT22;8222;51.462;12.630;2023-08-24T06:27:48;20.70;99.90
16229;DHT22;8222;51.462;12.630;2023-08-24T06:30:14;20.80;99.90
16229;DHT22;8222;51.462;12.630;2023-08-24T06:32:39;20.80;99.90
16229;DHT22;8222;51.462;12.630;2023-08-24T06:35:14;20.90;99.90
16229;DHT22;8222;51.462;12.630;2023-08-24T06:37:42;21.00;99.90
16229;DHT22;8222;51.462;12.630;2023-08-24T06:40:09;21.20;99.90
16229;DHT22;8222;51.462;12.630;2023-08-24T06:42:45;21.30;99.90
16229;DHT22;8222;51.462;12.630;2023-08-24T06:45:13;21.50;99.90
16229;DHT22;8222;51.462;12.630;2023-08-24T06:47:39;21.60;99.90
16229;DHT22;8222;51.462;12.630;2023-08-24T06:50:06;21.60;99.90
16229;DHT22;8222;51.462;12.630;2023-08-24T06:52:32;21.70;99.90
16229;DHT22;8222;51.462;12.630;2023-08-24T06:54:59;21.90;99.90
16229;DHT22;8222;51.462;12.630;2023-08-24T06:57:24;22.00;99.90
16229;DHT22;8222;51.462;12.630;2023-08-24T06:59:50;22.10;99.90
16229;DHT22;8222;51.462;12.630;2023-08-24T07:02:16;22.10;99.90
16229;DHT22;8222;51.462;12.630;2023-08-24T07:04:43;22.10;99.90
16229;DHT22;8222;51.462;12.630;2023-08-24T07:07:09;22.30;99.90
16229;DHT22;8222;51.462;12.630;2023-08-24T07:09:37;22.60;99.90
16229;DHT22;8222;51.462;12.630;2023-08-24T07:12:04;22.70;99.90
16229;DHT22;8222;51.462;12.630;2023-08-24T07:14:33;22.90;99.90
16229;DHT22;8222;51.462;12.630;2023-08-24T07:16:59;23.00;99.90
16229;DHT22;8222;51.462;12.630;2023-08-24T07:19:24;23.30;99.90
16229;DHT22;8222;51.462;12.630;2023-08-24T07:21:50;23.50;99.90
16229;DHT22;8222;51.462;12.630;2023-08-24T07:24:17;23.50;99.90
16229;DHT22;8222;51.462;12.630;2023-08-24T07:26:47;23.60;99.90
16229;DHT22;8222;51.462;12.630;2023-08-24T07:29:14;23.80;99.90
16229;DHT22;8222;51.462;12.630;2023-08-24T07:31:42;23.90;99.90
16229;DHT22;8222;51.462;12.630;2023-08-24T07:34:08;24.20;99.90
16229;DHT22;8222;51.462;12.630;2023-08-24T07:36:34;24.20;99.90
16229;DHT22;8222;51.462;12.630;2023-08-24T07:38:59;24.40;99.90
16229;DHT22;8222;51.462;12.630;2023-08-24T07:41:25;24.40;99.90
16229;DHT22;8222;51.462;12.630;2023-08-24T07:43:50;24.40;99.90
16229;DHT22;8222;51.462;12.630;2023-08-24T07:46:16;24.40;99.90
16229;DHT22;8222;51.462;12.630;2023-08-24T07:48:44;24.60;99.90
16229;DHT22;8222;51.462;12.630;2023-08-24T07:51:12;24.60;99.90
16229;DHT22;8222;51.462;12.630;2023-08-24T07:53:38;24.80;99.90
16229;DHT22;8222;51.462;12.630;2023-08-24T07:56:06;24.90;99.90
16229;DHT22;8222;51.462;12.630;2023-08-24T07:58:34;25.20;99.90
16229;DHT22;8222;51.462;12.630;2023-08-24T08:01:00;25.40;99.90
16229;DHT22;8222;51.462;12.630;2023-08-24T08:03:26;25.50;99.90
16229;DHT22;8222;51.462;12.630;2023-08-24T08:05:51;25.70;99.90
16229;DHT22;8222;51.462;12.630;2023-08-24T08:08:17;25.90;99.90
16229;DHT22;8222;51.462;12.630;2023-08-24T08:10:45;26.20;99.90
16229;DHT22;8222;51.462;12.630;2023-08-24T08:13:13;26.60;99.90
16229;DHT22;8222;51.462;12.630;2023-08-24T08:15:39;27.00;99.90
16229;DHT22;8222;51.462;12.630;2023-08-24T08:18:05;27.40;99.90
16229;DHT22;8222;51.462;12.630;2023-08-24T08:20:31;27.60;99.90
16229;DHT22;8222;51.462;12.630;2023-08-24T08:22:59;28.00;99.90
16229;DHT22;8222;51.462;12.630;2023-08-24T08:25:27;28.10;99.90
16229;DHT22;8222;51.462;12.630;2023-08-24T08:27:57;28.30;99.90
16229;DHT22;8222;51.462;12.630;2023-08-24T08:30:23;28.30;99.90
16229;DHT22;8222;51.462;12.630;2023-08-24T08:32:48;28.30;99.90
16229;DHT22;8222;51.462;12.630;2023-08-24T08:35:17;28.10;99.90
16229;DHT22;8222;51.462;12.630;2023-08-24T08:37:45;28.30;99.90
16229;DHT22;8222;51.462;12.630;2023-08-24T08:40:11;28.40;99.90
16229;DHT22;8222;51.462;12.630;2023-08-24T08:42:42;28.40;99.90
16229;DHT22;8222;51.462;12.630;2023-08-24T08:45:13;28.30;99.90
16229;DHT22;8222;51.462;12.630;2023-08-24T08:47:42;28.20;99.90
16229;DHT22;8222;51.462;12.630;2023-08-24T08:50:08;28.10;99.90
16229;DHT22;8222;51.462;12.630;2023-08-24T08:52:35;28.00;99.90
16229;DHT22;8222;51.462;12.630;2023-08-24T08:55:03;28.20;99.90
16229;DHT22;8222;51.462;12.630;2023-08-24T08:57:32;28.60;99.90
16229;DHT22;8222;51.462;12.630;2023-08-24T08:59:58;28.80;99.90
16229;DHT22;8222;51.462;12.630;2023-08-24T09:02:26;29.00;99.90
16229;DHT22;8222;51.462;12.630;2023-08-24T09:04:56;29.00;99.90
16229;DHT22;8222;51.462;12.630;2023-08-24T09:07:24;29.00;99.90
16229;DHT22;8222;51.462;12.630;2023-08-24T09:09:53;28.80;99.90
16229;DHT22;8222;51.462;12.630;2023-08-24T09:12:21;28.90;99.90
16229;DHT22;8222;51.462;12.630;2023-08-24T09:14:49;28.80;99.90
16229;DHT22;8222;51.462;12.630;2023-08-24T09:17:21;28.90;99.90
16229;DHT22;8222;51.462;12.630;2023-08-24T09:19:50;28.90;99.90
16229;DHT22;8222;51.462;12.630;2023-08-24T09:23:17;29.00;99.90
16229;DHT22;8222;51.462;12.630;2023-08-24T09:25:26;28.90;99.90
16229;DHT22;8222;51.462;12.630;2023-08-24T09:28:03;28.90;99.90
16229;DHT22;8222;51.462;12.630;2023-08-24T09:30:36;28.90;99.90
16229;DHT22;8222;51.462;12.630;2023-08-24T09:33:10;29.00;99.90
16229;DHT22;8222;51.462;12.630;2023-08-24T09:35:40;29.20;99.90
16229;DHT22;8222;51.462;12.630;2023-08-24T09:40:50;29.60;99.90
16229;DHT22;8222;51.462;12.630;2023-08-24T09:43:16;29.60;99.90
16229;DHT22;8222;51.462;12.630;2023-08-24T09:45:52;29.70;99.90
16229;DHT22;8222;51.462;12.630;2023-08-24T09:48:19;30.00;99.90
16229;DHT22;8222;51.462;12.630;2023-08-24T09:50:50;30.20;98.20
16229;DHT22;8222;51.462;12.630;2023-08-24T09:53:23;29.90;96.10
16229;DHT22;8222;51.462;12.630;2023-08-24T09:55:59;29.80;99.70
16229;DHT22;8222;51.462;12.630;2023-08-24T09:58:28;30.10;99.90
16229;DHT22;8222;51.462;12.630;2023-08-24T10:00:56;30.00;98.70
16229;DHT22;8222;51.462;12.630;2023-08-24T10:03:26;29.90;97.90
16229;DHT22;8222;51.462;12.630;2023-08-24T10:05:55;29.90;99.10
16229;DHT22;8222;51.462;12.630;2023-08-24T10:08:43;29.90;97.60
16229;DHT22;8222;51.462;12.630;2023-08-24T10:11:19;30.00;97.70
16229;DHT22;8222;51.462;12.630;2023-08-24T10:13:57;29.80;99.60
16229;DHT22;8222;51.462;12.630;2023-08-24T10:16:24;29.60;99.90
16229;DHT22;8222;51.462;12.630;2023-08-24T10:18:52;29.50;99.90
16229;DHT22;8222;51.462;12.630;2023-08-24T10:21:23;29.40;99.90
16229;DHT22;8222;51.462;12.630;2023-08-24T10:23:52;29.20;99.40
16229;DHT22;8222;51.462;12.630;2023-08-24T10:26:19;29.30;99.90
16229;DHT22;8222;51.462;12.630;2023-08-24T10:28:52;29.30;99.90
16229;DHT22;8222;51.462;12.630;2023-08-24T10:31:28;29.30;99.90
16229;DHT22;8222;51.462;12.630;2023-08-24T10:33:58;29.40;99.90
16229;DHT22;8222;51.462;12.630;2023-08-24T10:36:24;29.90;99.90
16229;DHT22;8222;51.462;12.630;2023-08-24T10:38:55;30.10;99.90
16229;DHT22;8222;51.462;12.630;2023-08-24T10:41:29;30.40;98.80
16229;DHT22;8222;51.462;12.630;2023-08-24T10:44:04;30.50;98.60
16229;DHT22;8222;51.462;12.630;2023-08-24T10:46:35;30.80;95.10
16229;DHT22;8222;51.462;12.630;2023-08-24T10:49:04;30.70;94.00
16229;DHT22;8222;51.462;12.630;2023-08-24T10:51:43;30.70;93.50
16229;DHT22;8222;51.462;12.630;2023-08-24T10:54:08;30.80;91.60
16229;DHT22;8222;51.462;12.630;2023-08-24T10:56:38;30.60;91.20
16229;DHT22;8222;51.462;12.630;2023-08-24T10:59:19;30.40;91.60
16229;DHT22;8222;51.462;12.630;2023-08-24T11:01:56;30.20;90.00
16229;DHT22;8222;51.462;12.630;2023-08-24T11:04:26;30.20;92.70
16229;DHT22;8222;51.462;12.630;2023-08-24T11:06:56;30.30;92.30
16229;DHT22;8222;51.462;12.630;2023-08-24T11:09:24;30.40;92.60
16229;DHT22;8222;51.462;12.630;2023-08-24T11:12:02;30.60;91.90
16229;DHT22;8222;51.462;12.630;2023-08-24T11:14:48;30.70;91.30
16229;DHT22;8222;51.462;12.630;2023-08-24T11:17:20;30.80;90.90
16229;DHT22;8222;51.462;12.630;2023-08-24T11:19:51;30.80;91.00
16229;DHT22;8222;51.462;12.630;2023-08-24T11:22:17;30.90;92.20
16229;DHT22;8222;51.462;12.630;2023-08-24T11:24:51;30.80;89.20
16229;DHT22;8222;51.462;12.630;2023-08-24T11:27:19;30.50;88.70
16229;DHT22;8222;51.462;12.630;2023-08-24T11:29:45;30.50;90.10
16229;DHT22;8222;51.462;12.630;2023-08-24T11:32:16;30.30;86.90
16229;DHT22;8222;51.462;12.630;2023-08-24T11:34:46;30.20;86.90
16229;DHT22;8222;51.462;12.630;2023-08-24T11:37:20;30.20;90.00
16229;DHT22;8222;51.462;12.630;2023-08-24T11:39:46;30.00;90.00
16229;DHT22;8222;51.462;12.630;2023-08-24T11:42:14;29.90;90.50
16229;DHT22;8222;51.462;12.630;2023-08-24T11:44:48;30.00;92.00
16229;DHT22;8222;51.462;12.630;2023-08-24T11:47:14;30.10;91.10
16229;DHT22;8222;51.462;12.630;2023-08-24T11:49:41;30.40;91.70
16229;DHT22;8222;51.462;12.630;2023-08-24T11:52:09;30.40;92.30
16229;DHT22;8222;51.462;12.630;2023-08-24T11:54:36;30.30;90.60
16229;DHT22;8222;51.462;12.630;2023-08-24T11:57:09;30.50;91.30
16229;DHT22;8222;51.462;12.630;2023-08-24T11:59:39;30.60;91.90
16229;DHT22;8222;51.462;12.630;2023-08-24T12:02:08;30.40;91.90
16229;DHT22;8222;51.462;12.630;2023-08-24T12:04:41;30.40;94.60
16229;DHT22;8222;51.462;12.630;2023-08-24T12:07:14;30.50;93.10
16229;DHT22;8222;51.462;12.630;2023-08-24T12:09:43;30.60;91.70
16229;DHT22;8222;51.462;12.630;2023-08-24T12:12:18;30.70;95.00
16229;DHT22;8222;51.462;12.630;2023-08-24T12:14:49;30.80;90.90
16229;DHT22;8222;51.462;12.630;2023-08-24T12:17:16;30.80;92.70
16229;DHT22;8222;51.462;12.630;2023-08-24T12:19:43;30.80;92.20
16229;DHT22;8222;51.462;12.630;2023-08-24T12:22:16;30.80;91.40
16229;DHT22;8222;51.462;12.630;2023-08-24T12:24:48;31.10;91.20
16229;DHT22;8222;51.462;12.630;2023-08-24T12:27:29;31.20;88.40
16229;DHT22;8222;51.462;12.630;2023-08-24T12:30:00;31.00;83.60
16229;DHT22;8222;51.462;12.630;2023-08-24T12:32:44;30.80;84.70
16229;DHT22;8222;51.462;12.630;2023-08-24T12:35:13;30.90;87.90
16229;DHT22;8222;51.462;12.630;2023-08-24T12:37:39;30.90;92.40
16229;DHT22;8222;51.462;12.630;2023-08-24T12:40:06;30.80;92.70
16229;DHT22;8222;51.462;12.630;2023-08-24T12:42:32;30.90;92.50
16229;DHT22;8222;51.462;12.630;2023-08-24T12:45:00;30.80;90.50
16229;DHT22;8222;51.462;12.630;2023-08-24T12:47:29;30.70;91.60
16229;DHT22;8222;51.462;12.630;2023-08-24T12:49:54;30.80;94.30
16229;DHT22;8222;51.462;12.630;2023-08-24T12:52:32;30.90;90.60
16229;DHT22;8222;51.462;12.630;2023-08-24T12:55:01;30.80;88.10
16229;DHT22;8222;51.462;12.630;2023-08-24T12:57:26;30.80;88.30
16229;DHT22;8222;51.462;12.630;2023-08-24T12:59:54;30.80;87.10
16229;DHT22;8222;51.462;12.630;2023-08-24T13:02:20;30.70;87.80
16229;DHT22;8222;51.462;12.630;2023-08-24T13:04:46;30.80;90.20
16229;DHT22;8222;51.462;12.630;2023-08-24T13:07:14;30.80;90.00
16229;DHT22;8222;51.462;12.630;2023-08-24T13:09:40;30.90;90.80
16229;DHT22;8222;51.462;12.630;2023-08-24T13:12:10;31.10;90.20
16229;DHT22;8222;51.462;12.630;2023-08-24T13:14:36;31.30;88.00
16229;DHT22;8222;51.462;12.630;2023-08-24T13:17:01;31.20;87.50
16229;DHT22;8222;51.462;12.630;2023-08-24T13:19:27;30.90;86.60
16229;DHT22;8222;51.462;12.630;2023-08-24T13:21:52;30.80;86.10
16229;DHT22;8222;51.462;12.630;2023-08-24T13:24:18;30.70;87.70
16229;DHT22;8222;51.462;12.630;2023-08-24T13:26:48;30.70;89.40
16229;DHT22;8222;51.462;12.630;2023-08-24T13:29:14;30.70;87.20
16229;DHT22;8222;51.462;12.630;2023-08-24T13:31:40;30.70;87.10
16229;DHT22;8222;51.462;12.630;2023-08-24T13:34:05;30.90;90.70
16229;DHT22;8222;51.462;12.630;2023-08-24T13:36:34;30.90;87.70
16229;DHT22;8222;51.462;12.630;2023-08-24T13:39:00;30.90;90.00
16229;DHT22;8222;51.462;12.630;2023-08-24T13:41:25;30.90;87.00
16229;DHT22;8222;51.462;12.630;2023-08-24T13:43:51;30.90;87.00
16229;DHT22;8222;51.462;12.630;2023-08-24T13:46:19;30.80;86.50
16229;DHT22;8222;51.462;12.630;2023-08-24T13:48:45;30.90;86.70
16229;DHT22;8222;51.462;12.630;2023-08-24T13:51:10;31.00;87.40
16229;DHT22;8222;51.462;12.630;2023-08-24T13:53:37;31.10;85.90
16229;DHT22;8222;51.462;12.630;2023-08-24T13:56:05;31.40;85.20
16229;DHT22;8222;51.462;12.630;2023-08-24T13:58:35;31.40;81.90
16229;DHT22;8222;51.462;12.630;2023-08-24T14:01:01;31.40;83.90
16229;DHT22;8222;51.462;12.630;2023-08-24T14:03:28;31.50;81.60
16229;DHT22;8222;51.462;12.630;2023-08-24T14:05:57;31.40;81.50
16229;DHT22;8222;51.462;12.630;2023-08-24T14:08:23;31.50;85.10
16229;DHT22;8222;51.462;12.630;2023-08-24T14:10:49;31.50;80.20
16229;DHT22;8222;51.462;12.630;2023-08-24T14:13:15;31.70;82.20
16229;DHT22;8222;51.462;12.630;2023-08-24T14:15:41;31.80;80.30
16229;DHT22;8222;51.462;12.630;2023-08-24T14:18:06;31.80;79.80
16229;DHT22;8222;51.462;12.630;2023-08-24T14:20:33;31.80;82.10
16229;DHT22;8222;51.462;12.630;2023-08-24T14:22:58;31.80;79.70
16229;DHT22;8222;51.462;12.630;2023-08-24T14:25:24;31.80;81.50
16229;DHT22;8222;51.462;12.630;2023-08-24T14:27:50;32.00;83.30
16229;DHT22;8222;51.462;12.630;2023-08-24T14:30:15;32.10;82.00
16229;DHT22;8222;51.462;12.630;2023-08-24T14:32:41;31.90;79.80
16229;DHT22;8222;51.462;12.630;2023-08-24T14:35:09;32.10;83.60
16229;DHT22;8222;51.462;12.630;2023-08-24T14:37:35;32.30;79.70
16229;DHT22;8222;51.462;12.630;2023-08-24T14:40:07;32.10;78.70
16229;DHT22;8222;51.462;12.630;2023-08-24T14:42:32;32.00;80.30
16229;DHT22;8222;51.462;12.630;2023-08-24T14:45:01;31.90;82.20
16229;DHT22;8222;51.462;12.630;2023-08-24T14:47:27;31.80;81.20
16229;DHT22;8222;51.462;12.630;2023-08-24T14:49:52;31.80;82.30
16229;DHT22;8222;51.462;12.630;2023-08-24T14:52:20;31.90;82.00
16229;DHT22;8222;51.462;12.630;2023-08-24T14:54:46;31.90;81.60
16229;DHT22;8222;51.462;12.630;2023-08-24T14:57:12;31.80;79.40
16229;DHT22;8222;51.462;12.630;2023-08-24T14:59:37;31.60;79.00
16229;DHT22;8222;51.462;12.630;2023-08-24T15:02:03;31.40;82.20
16229;DHT22;8222;51.462;12.630;2023-08-24T15:04:29;31.50;81.50
16229;DHT22;8222;51.462;12.630;2023-08-24T15:06:57;31.50;80.20
16229;DHT22;8222;51.462;12.630;2023-08-24T15:09:25;31.60;78.30
16229;DHT22;8222;51.462;12.630;2023-08-24T15:11:50;31.60;80.80
16229;DHT22;8222;51.462;12.630;2023-08-24T15:14:16;31.60;80.60
16229;DHT22;8222;51.462;12.630;2023-08-24T15:16:42;31.60;78.90
16229;DHT22;8222;51.462;12.630;2023-08-24T15:19:08;31.60;79.30
16229;DHT22;8222;51.462;12.630;2023-08-24T15:21:33;31.60;82.30
16229;DHT22;8222;51.462;12.630;2023-08-24T15:23:59;31.70;78.50
16229;DHT22;8222;51.462;12.630;2023-08-24T15:26:25;31.90;78.10
16229;DHT22;8222;51.462;12.630;2023-08-24T15:29:12;32.10;80.10
16229;DHT22;8222;51.462;12.630;2023-08-24T15:31:38;32.00;77.70
16229;DHT22;8222;51.462;12.630;2023-08-24T15:34:04;32.20;78.90
16229;DHT22;8222;51.462;12.630;2023-08-24T15:36:32;32.40;80.30
16229;DHT22;8222;51.462;12.630;2023-08-24T15:39:02;32.70;79.90
16229;DHT22;8222;51.462;12.630;2023-08-24T15:41:31;32.80;73.90